createdAt,value
2022-11-15T00:01:09.098Z,11.2
2022-11-15T00:06:13.617Z,11.3
2022-11-15T00:11:18.136Z,11.3
2022-11-15T00:16:22.116Z,11.1
2022-11-15T00:21:26.246Z,11.1
2022-11-15T00:26:30.736Z,11
2022-11-15T00:31:34.300Z,11.1
2022-11-15T00:36:38.845Z,11
2022-11-15T00:41:43.355Z,11.1
2022-11-15T00:46:46.942Z,11.3
2022-11-15T00:51:51.486Z,11.2
2022-11-15T00:56:55.981Z,11.3
2022-11-15T01:01:59.536Z,11.2
2022-11-15T01:07:04.150Z,11.3
2022-11-15T01:12:08.633Z,11.4
2022-11-15T01:17:13.151Z,11.4
2022-11-15T01:22:16.700Z,11.4
2022-11-15T01:27:21.251Z,11.5
2022-11-15T01:32:25.777Z,11.5
2022-11-15T01:37:29.330Z,11.5
2022-11-15T01:42:33.855Z,11.5
2022-11-15T01:47:38.365Z,11.4
2022-11-15T01:52:41.955Z,11.5
2022-11-15T01:57:46.459Z,11.6
2022-11-15T02:02:50.987Z,11.7
2022-11-15T02:07:54.725Z,11.7
2022-11-15T02:12:59.083Z,11.7
2022-11-15T02:18:03.636Z,11.7
2022-11-15T02:23:08.169Z,11.7
2022-11-15T02:28:11.694Z,11.7
2022-11-15T02:33:16.254Z,11.8
2022-11-15T02:38:20.804Z,11.8
2022-11-15T02:43:24.331Z,11.9
2022-11-15T02:48:28.880Z,11.9
2022-11-15T02:53:33.773Z,12
2022-11-15T02:58:36.938Z,12
2022-11-15T03:03:41.486Z,12.1
2022-11-15T03:08:46.053Z,12.1
2022-11-15T03:13:49.554Z,12.1
2022-11-15T03:18:54.100Z,12.2
2022-11-15T03:23:58.682Z,12.2
2022-11-15T03:29:03.149Z,12.3
2022-11-15T03:34:06.756Z,12.3
2022-11-15T03:39:13.226Z,12.3
2022-11-15T03:44:15.781Z,12.3
2022-11-15T03:49:19.316Z,12.3
2022-11-15T03:54:22.949Z,12.3
2022-11-15T03:59:27.418Z,12.2
2022-11-15T04:04:31.939Z,12.2
2022-11-15T04:09:36.551Z,12.2
2022-11-15T04:14:40.053Z,12.2
2022-11-15T04:19:44.584Z,12.2
2022-11-15T04:24:49.148Z,12.1
2022-11-15T04:29:52.688Z,12
2022-11-15T04:34:57.211Z,11.9
2022-11-15T04:40:01.772Z,11.9
2022-11-15T04:45:05.324Z,11.8
2022-11-15T04:50:09.863Z,11.8
2022-11-15T04:55:14.447Z,11.9
2022-11-15T05:00:17.955Z,11.8
2022-11-15T05:05:22.473Z,11.8
2022-11-15T05:10:27.043Z,11.8
2022-11-15T05:15:31.580Z,11.8
2022-11-15T05:20:35.092Z,11.7
2022-11-15T05:25:39.674Z,11.9
2022-11-15T05:30:44.156Z,12
2022-11-15T05:35:47.731Z,12.1
2022-11-15T05:40:52.264Z,12
2022-11-15T05:45:56.779Z,11.9
2022-11-15T05:51:00.340Z,11.9
2022-11-15T05:56:04.909Z,11.9
2022-11-15T06:01:09.454Z,11.8
2022-11-15T06:06:16.343Z,11.7
2022-11-15T06:11:17.495Z,11.7
2022-11-15T06:16:22.013Z,11.6
2022-11-15T06:21:26.556Z,11.5
2022-11-15T06:26:30.120Z,11.4
2022-11-15T06:31:34.653Z,11.4
2022-11-15T06:36:39.202Z,11.5
2022-11-15T06:41:42.766Z,11.4
2022-11-15T06:46:47.270Z,11.4
2022-11-15T06:51:51.806Z,11.3
2022-11-15T06:56:55.370Z,11.3
2022-11-15T07:01:59.860Z,11.3
2022-11-15T07:07:04.483Z,11.2
2022-11-15T07:12:08.184Z,11.2
2022-11-15T07:17:12.483Z,11.3
2022-11-15T07:22:17.024Z,11.3
2022-11-15T07:27:21.568Z,11.4
2022-11-15T07:32:25.133Z,11.5
2022-11-15T07:37:29.687Z,11.4
2022-11-15T07:42:34.223Z,11.4
2022-11-15T07:47:37.761Z,11.4
2022-11-15T07:52:42.243Z,11.4
2022-11-15T07:57:46.850Z,11.5
2022-11-15T08:02:50.474Z,11.7
2022-11-15T08:07:54.905Z,11.7
2022-11-15T08:12:58.546Z,11.8
2022-11-15T08:18:02.947Z,11.8
2022-11-15T08:23:07.484Z,11.9
2022-11-15T08:28:11.051Z,12
2022-11-15T08:33:15.568Z,12.2
2022-11-15T08:38:20.142Z,12.2
2022-11-15T08:43:23.709Z,12.2
2022-11-15T08:48:28.198Z,12.5
2022-11-15T08:53:32.736Z,12.6
2022-11-15T08:58:36.316Z,13
2022-11-15T09:03:40.807Z,12.8
2022-11-15T09:08:47.935Z,13.1
2022-11-15T09:13:49.920Z,13.4
2022-11-15T09:18:53.459Z,13.2
2022-11-15T09:23:58.001Z,13.3
2022-11-15T09:29:02.552Z,13.5
2022-11-15T09:34:06.067Z,13.5
2022-11-15T09:39:10.603Z,13.6
2022-11-15T09:44:15.151Z,13.9
2022-11-15T09:49:18.668Z,14
2022-11-15T09:54:51.643Z,13.9
2022-11-15T09:59:27.861Z,13.6
2022-11-15T10:04:31.271Z,13.7
2022-11-15T10:09:35.832Z,13.9
2022-11-15T10:14:40.397Z,13.7
2022-11-15T10:19:44.908Z,13.9
2022-11-15T10:24:48.457Z,14.3
2022-11-15T10:29:52.989Z,14.4
2022-11-15T10:34:57.495Z,14.6
2022-11-15T10:40:01.054Z,14.4
2022-11-15T10:45:05.627Z,14.4
2022-11-15T10:50:10.149Z,14.5
2022-11-15T10:55:13.700Z,14.3
2022-11-15T11:00:18.245Z,14.3
2022-11-15T11:05:22.785Z,14.6
2022-11-15T11:10:50.478Z,14.7
2022-11-15T11:15:30.872Z,15.2
2022-11-15T11:20:35.381Z,14.4
2022-11-15T11:25:39.928Z,13.8
2022-11-15T11:30:43.588Z,14
2022-11-15T11:35:47.994Z,13.4
2022-11-15T11:40:52.526Z,13.6
2022-11-15T11:45:56.356Z,13.5
2022-11-15T11:51:00.607Z,13.5
2022-11-15T11:56:05.168Z,13.5
2022-11-15T12:01:12.706Z,14.4
2022-11-15T12:06:13.241Z,14.3
2022-11-15T12:11:17.765Z,13.8
2022-11-15T12:16:21.326Z,13.9
2022-11-15T12:21:28.700Z,13.8
2022-11-15T12:26:29.392Z,14
2022-11-15T12:31:33.993Z,14
2022-11-15T12:36:38.485Z,13.8
2022-11-15T12:41:42.073Z,13.9
2022-11-15T12:46:46.565Z,14
2022-11-15T12:51:51.076Z,13.8
2022-11-15T12:56:54.652Z,13.9
2022-11-15T13:01:59.228Z,13.9
2022-11-15T13:07:03.750Z,14
2022-11-15T13:12:08.251Z,13.9
2022-11-15T13:17:11.847Z,13.9
2022-11-15T13:22:16.303Z,13.9
2022-11-15T13:27:20.838Z,13.8
2022-11-15T13:32:24.455Z,13.8
2022-11-15T13:37:28.943Z,13.9
2022-11-15T13:42:33.447Z,13.9
2022-11-15T13:47:37.030Z,13.9
2022-11-15T13:52:41.551Z,13.9
2022-11-15T13:57:46.115Z,13.9
2022-11-15T14:02:49.665Z,14
2022-11-15T14:07:54.174Z,13.9
2022-11-15T14:12:58.737Z,13.9
2022-11-15T14:18:03.261Z,14
2022-11-15T14:23:09.889Z,13.9
2022-11-15T14:28:11.305Z,13.9
2022-11-15T14:33:15.872Z,14
2022-11-15T14:38:19.422Z,14
2022-11-15T14:43:23.938Z,13.9
2022-11-15T14:48:28.528Z,13.9
2022-11-15T14:53:32.019Z,13.9
2022-11-15T14:58:36.541Z,13.8
2022-11-15T15:03:41.111Z,13.9
2022-11-15T15:08:44.625Z,13.8
2022-11-15T15:13:49.192Z,13.8
2022-11-15T15:18:53.718Z,13.7
2022-11-15T15:23:58.242Z,13.6
2022-11-15T15:29:01.801Z,13.6
2022-11-15T15:34:06.335Z,13.6
2022-11-15T15:39:10.846Z,13.5
2022-11-15T15:44:14.410Z,13.5
2022-11-15T15:49:18.933Z,13.5
2022-11-15T15:54:23.503Z,13.4
2022-11-15T15:59:27.030Z,13.4
2022-11-15T16:04:31.549Z,13.4
2022-11-15T16:09:36.063Z,13.3
2022-11-15T16:14:39.614Z,13.4
2022-11-15T16:19:44.188Z,13.4
2022-11-15T16:24:48.711Z,13.3
2022-11-15T16:29:53.258Z,13.3
2022-11-15T16:34:56.813Z,13.2
2022-11-15T16:40:01.312Z,13.2
2022-11-15T16:45:04.859Z,13.1
2022-11-15T16:50:09.436Z,13
2022-11-15T16:55:12.958Z,12.9
2022-11-15T17:00:17.499Z,12.9
2022-11-15T17:05:22.056Z,12.9
2022-11-15T17:10:26.554Z,12.8
2022-11-15T17:15:30.117Z,12.9
2022-11-15T17:20:34.682Z,12.9
2022-11-15T17:25:39.153Z,12.8
2022-11-15T17:30:42.738Z,12.8
2022-11-15T17:35:47.266Z,12.8
2022-11-15T17:40:51.780Z,12.8
2022-11-15T17:45:55.366Z,12.7
2022-11-15T17:50:59.932Z,12.8
2022-11-15T17:56:04.423Z,12.7
2022-11-15T18:01:08.093Z,12.6
2022-11-15T18:06:12.507Z,12.5
2022-11-15T18:11:17.047Z,12.3
2022-11-15T18:16:21.594Z,12.2
2022-11-15T18:21:25.145Z,12.1
2022-11-15T18:26:29.703Z,12
2022-11-15T18:31:34.196Z,12
2022-11-15T18:36:38.858Z,11.8
2022-11-15T18:41:43.408Z,11.9
2022-11-15T18:46:47.925Z,11.8
2022-11-15T18:51:51.490Z,11.7
2022-11-15T18:56:55.991Z,11.7
2022-11-15T19:02:00.536Z,11.7
2022-11-15T19:07:04.187Z,11.6
2022-11-15T19:12:08.628Z,11.6
2022-11-15T19:17:13.165Z,11.5
2022-11-15T19:22:17.730Z,11.5
2022-11-15T19:27:21.220Z,11.4
2022-11-15T19:32:25.805Z,11.4
2022-11-15T19:37:30.320Z,11.4
2022-11-15T19:42:33.831Z,11.5
2022-11-15T19:47:38.433Z,11.4
2022-11-15T19:52:42.963Z,11.5
2022-11-15T19:57:46.484Z,11.5
2022-11-15T20:02:51.029Z,11.5
2022-11-15T20:07:55.613Z,11.5
2022-11-15T20:13:00.204Z,11.5
2022-11-15T20:18:04.728Z,11.4
2022-11-15T20:23:09.314Z,11.4
2022-11-15T20:28:13.828Z,11.4
2022-11-15T20:33:17.349Z,11.4
2022-11-15T20:38:21.899Z,11.4
2022-11-15T20:43:26.455Z,11.5
2022-11-15T20:48:30.127Z,11.5
2022-11-15T20:53:34.687Z,11.4
2022-11-15T20:58:39.200Z,11.4
2022-11-15T21:03:43.728Z,11.4
2022-11-15T21:08:48.269Z,11.4
2022-11-15T21:13:51.796Z,11.4
2022-11-15T21:18:56.333Z,11.4
2022-11-15T21:24:00.881Z,11.4
2022-11-15T21:29:05.544Z,11.4
2022-11-15T21:34:10.040Z,11.4
2022-11-15T21:39:14.601Z,11.4
2022-11-15T21:44:18.129Z,11.4
2022-11-15T21:49:22.728Z,11.3
2022-11-15T21:54:27.232Z,11.3
2022-11-15T21:59:30.729Z,11.2
2022-11-15T22:04:35.253Z,11.2
2022-11-15T22:09:39.817Z,11.2
2022-11-15T22:14:44.365Z,11.2
2022-11-15T22:19:52.972Z,11.2
2022-11-15T22:24:52.497Z,11.2
2022-11-15T22:29:57.001Z,11.2
2022-11-15T22:35:00.510Z,11.2
2022-11-15T22:40:05.066Z,11.2
2022-11-15T22:45:09.612Z,11.1
2022-11-15T22:50:13.133Z,11.1
2022-11-15T22:55:17.666Z,11.2
2022-11-15T23:00:22.191Z,11.2
2022-11-15T23:05:25.745Z,11.2
2022-11-15T23:10:30.285Z,11.2
2022-11-15T23:15:34.800Z,11.2
2022-11-15T23:20:43.387Z,11.2
2022-11-15T23:25:42.946Z,11.2
2022-11-15T23:30:47.495Z,11.1
2022-11-15T23:35:51.981Z,11.1
2022-11-15T23:40:55.558Z,11.1
2022-11-15T23:46:00.138Z,11.1
2022-11-15T23:51:04.598Z,11.1
2022-11-15T23:56:08.197Z,11.1
